Time;durP1;ratioP1;P1;durP2;ratioP2;P2;SDS_P1;SDS_P2;PMS_P1;PMS_P2;Temp;Humidity;BMP_temperature;BMP_pressure;BME280_temperature;BME280_humidity;BME280_pressure;Samples;Min_cycle;Max_cycle;Signal;HPM_P1;HPM_P2
2021/12/11 00:01:17;;;;;;;21.23;10.85;;;-0.20;99.90;;;;;;5013038;28;20490;-55
2021/12/11 00:03:54;;;;;;;21.02;10.77;;;-0.20;99.90;;;;;;4991754;28;20493;-52
2021/12/11 00:06:48;;;;;;;26.65;11.88;;;-0.20;99.90;;;;;;5021729;28;20041;-53
2021/12/11 00:09:31;;;;;;;23.20;11.88;;;-0.20;99.90;;;;;;5020341;28;20137;-55
2021/12/11 00:12:20;;;;;;;20.70;11.75;;;-0.30;99.90;;;;;;5007070;28;20052;-52
2021/12/11 00:14:51;;;;;;;23.48;11.90;;;-0.30;99.90;;;;;;5013229;28;20034;-55
2021/12/11 00:17:21;;;;;;;20.00;11.18;;;-0.20;99.90;;;;;;5024391;28;20042;-53
2021/12/11 00:19:47;;;;;;;20.67;11.35;;;-0.30;99.90;;;;;;5007864;28;20065;-52
2021/12/11 00:22:18;;;;;;;21.95;12.18;;;-0.30;99.90;;;;;;5001250;28;20049;-52
2021/12/11 00:24:44;;;;;;;24.50;12.43;;;-0.30;99.90;;;;;;5011621;28;20091;-53
2021/12/11 00:27:13;;;;;;;23.90;11.60;;;-0.30;99.90;;;;;;5015699;28;20042;-53
2021/12/11 00:29:40;;;;;;;23.00;12.18;;;-0.30;99.90;;;;;;5012297;28;20038;-52
2021/12/11 00:32:25;;;;;;;24.17;12.23;;;-0.30;99.90;;;;;;4984209;28;20489;-55
2021/12/11 00:34:54;;;;;;;24.85;12.38;;;-0.30;99.90;;;;;;4998941;28;20041;-53
2021/12/11 00:37:23;;;;;;;20.35;11.30;;;-0.30;99.90;;;;;;5017415;28;20037;-51
2021/12/11 00:39:52;;;;;;;22.73;11.57;;;-0.30;99.90;;;;;;4989361;28;20042;-54
2021/12/11 00:42:22;;;;;;;21.27;11.05;;;-0.20;99.90;;;;;;5008514;28;20045;-51
2021/12/11 00:44:55;;;;;;;21.25;10.85;;;-0.30;99.90;;;;;;4999175;28;20034;-53
2021/12/11 00:47:22;;;;;;;;;;;-0.30;99.90;;;;;;5014156;28;20546;-52
2021/12/11 00:49:58;;;;;;;18.08;9.85;;;-0.30;99.90;;;;;;4994042;28;19918;-55
2021/12/11 00:52:45;;;;;;;18.23;9.90;;;-0.40;99.90;;;;;;4999024;28;20037;-55
2021/12/11 00:55:30;;;;;;;19.52;9.90;;;-0.40;99.90;;;;;;5005584;28;20046;-51
2021/12/11 00:58:20;;;;;;;21.95;10.65;;;-0.40;99.90;;;;;;5019170;28;20399;-49
2021/12/11 01:02:03;;;;;;;17.35;10.30;;;-0.40;99.90;;;;;;5011637;28;20109;-50
2021/12/11 01:04:37;;;;;;;20.52;10.68;;;-0.50;99.90;;;;;;4934297;28;20066;-50
2021/12/11 01:07:18;;;;;;;18.90;10.70;;;-0.60;99.90;;;;;;5010923;28;20402;-52
2021/12/11 01:09:56;;;;;;;24.00;10.68;;;-0.60;99.90;;;;;;5004364;28;20053;-50
2021/12/11 01:12:38;;;;;;;19.08;10.52;;;-0.50;99.90;;;;;;4974608;28;20078;-53
2021/12/11 01:15:14;;;;;;;22.45;12.07;;;-0.60;99.90;;;;;;4992195;28;20046;-53
2021/12/11 01:18:01;;;;;;;22.25;10.82;;;-0.60;99.90;;;;;;4958708;28;20042;-51
2021/12/11 01:20:49;;;;;;;20.02;12.10;;;-0.60;99.90;;;;;;4997175;28;20045;-52
2021/12/11 01:23:34;;;;;;;22.98;11.48;;;-0.60;99.90;;;;;;4983491;28;20042;-54
2021/12/11 01:26:07;;;;;;;23.88;12.90;;;-0.60;99.90;;;;;;4992017;28;20051;-54
2021/12/11 01:28:34;;;;;;;27.25;13.05;;;-0.60;99.90;;;;;;4992101;28;20061;-49
2021/12/11 01:31:03;;;;;;;26.67;13.68;;;-0.50;99.90;;;;;;5000938;28;20088;-53
2021/12/11 01:33:29;;;;;;;22.60;13.05;;;-0.60;99.90;;;;;;5011468;28;20038;-53
2021/12/11 01:35:55;;;;;;;21.23;12.18;;;-0.50;99.90;;;;;;5009134;28;20401;-53
2021/12/11 01:38:25;;;;;;;24.02;12.48;;;-0.50;99.90;;;;;;5010454;28;20030;-53
2021/12/11 01:40:54;;;;;;;26.30;12.52;;;-0.50;99.90;;;;;;5005000;28;20168;-53
2021/12/11 01:43:22;;;;;;;25.23;12.40;;;-0.50;99.90;;;;;;5010679;28;20038;-54
2021/12/11 01:45:52;;;;;;;26.73;11.95;;;-0.50;99.90;;;;;;5006915;28;20049;-53
2021/12/11 01:48:25;;;;;;;20.20;12.43;;;-0.50;99.90;;;;;;4960955;28;20684;-53
2021/12/11 01:51:16;;;;;;;21.85;11.10;;;-0.50;99.90;;;;;;5000273;28;20157;-54
2021/12/11 01:53:46;;;;;;;23.88;12.68;;;-0.60;99.90;;;;;;5010701;28;20046;-54
2021/12/11 02:03:29;;;;;;;19.98;11.32;;;-0.60;99.90;;;;;;4917763;29;20601;-52
2021/12/11 02:05:56;;;;;;;20.52;11.27;;;-0.60;99.90;;;;;;4979212;28;20045;-49
2021/12/11 02:08:32;;;;;;;21.23;11.00;;;-0.70;99.90;;;;;;4996716;28;20513;-51
2021/12/11 02:11:03;;;;;;;20.70;11.30;;;-0.70;99.90;;;;;;4997370;28;20117;-51
2021/12/11 02:13:57;;;;;;;23.60;11.10;;;-0.70;99.90;;;;;;5014686;28;20077;-53
2021/12/11 02:20:15;;;;;;;18.00;8.90;;;-0.80;99.90;;;;;;4993430;28;20042;-52
2021/12/11 02:22:45;;;;;;;22.83;10.23;;;-0.80;99.90;;;;;;4980772;28;20030;-50
2021/12/11 02:25:21;;;;;;;19.02;9.93;;;-0.80;99.90;;;;;;5014643;28;20037;-49
2021/12/11 02:27:55;;;;;;;17.95;10.73;;;-0.90;99.90;;;;;;5014876;28;20410;-53
2021/12/11 02:30:32;;;;;;;19.50;10.05;;;-0.90;99.90;;;;;;5013551;28;20046;-52
2021/12/11 02:33:27;;;;;;;19.85;11.55;;;-0.90;99.90;;;;;;5013678;28;20045;-52
2021/12/11 02:36:11;;;;;;;21.15;11.75;;;-0.90;99.90;;;;;;4977737;28;20602;-50
2021/12/11 02:38:54;;;;;;;22.17;12.18;;;-0.90;99.90;;;;;;4998861;28;20551;-53
2021/12/11 02:41:59;;;;;;;24.25;11.82;;;-0.90;99.90;;;;;;5005626;28;20042;-51
2021/12/11 02:44:38;;;;;;;21.80;11.40;;;-0.90;99.90;;;;;;4998373;28;20050;-50
2021/12/11 02:47:15;;;;;;;22.67;12.27;;;-0.90;99.90;;;;;;4989828;28;20544;-52
2021/12/11 02:49:53;;;;;;;22.05;12.52;;;-0.90;99.90;;;;;;5005091;28;20080;-53
2021/12/11 02:52:28;;;;;;;21.00;12.18;;;-0.90;99.90;;;;;;5014119;28;20042;-51
2021/12/11 02:55:04;;;;;;;23.90;12.27;;;-0.90;99.90;;;;;;4980402;28;20099;-51
2021/12/11 02:57:36;;;;;;;24.80;11.48;;;-0.90;99.90;;;;;;5012788;28;20042;-52
2021/12/11 03:00:29;;;;;;;21.48;11.45;;;-0.80;99.90;;;;;;5013810;28;20073;-51
2021/12/11 03:03:03;;;;;;;21.98;11.70;;;-0.90;99.90;;;;;;4980159;28;20045;-48
2021/12/11 03:05:43;;;;;;;20.90;11.23;;;-0.90;99.90;;;;;;5012037;28;20137;-48
2021/12/11 03:08:13;;;;;;;18.98;10.80;;;-0.90;99.90;;;;;;4993943;28;20050;-48
2021/12/11 03:10:41;;;;;;;25.23;12.70;;;-0.90;99.90;;;;;;4994403;28;20121;-48
2021/12/11 03:13:07;;;;;;;23.52;11.25;;;-1.00;99.90;;;;;;4992816;28;20121;-49
2021/12/11 03:15:33;;;;;;;22.52;11.90;;;-1.00;99.90;;;;;;4977192;28;20101;-48
2021/12/11 03:18:01;;;;;;;20.55;11.35;;;-1.00;99.90;;;;;;5013664;28;20049;-48
2021/12/11 03:20:27;;;;;;;19.67;11.65;;;-0.90;99.90;;;;;;5013172;28;20042;-54
2021/12/11 03:22:53;;;;;;;22.52;12.13;;;-0.90;99.90;;;;;;5013333;28;20091;-48
2021/12/11 03:25:25;;;;;;;25.88;12.20;;;-0.90;99.90;;;;;;5005270;28;20455;-48
2021/12/11 03:27:51;;;;;;;21.97;11.93;;;-0.90;99.90;;;;;;5001733;28;20049;-50
2021/12/11 03:30:25;;;;;;;24.10;12.20;;;-1.00;99.90;;;;;;4993841;28;20406;-48
2021/12/11 03:32:54;;;;;;;22.17;12.00;;;-1.00;99.90;;;;;;4975950;28;20118;-53
2021/12/11 03:35:21;;;;;;;22.42;12.32;;;-1.00;99.90;;;;;;5006252;28;20084;-49
2021/12/11 03:37:47;;;;;;;25.38;12.35;;;-1.00;99.90;;;;;;4990317;28;20037;-51
2021/12/11 03:40:13;;;;;;;26.13;13.55;;;-1.00;99.90;;;;;;5011891;28;20037;-52
2021/12/11 03:42:41;;;;;;;23.02;13.05;;;-1.00;99.90;;;;;;4991245;28;20041;-48
2021/12/11 03:45:16;;;;;;;25.08;12.90;;;-0.90;99.90;;;;;;5003553;28;20091;-49
2021/12/11 03:47:49;;;;;;;24.95;13.43;;;-1.00;99.90;;;;;;5012763;28;20054;-48
2021/12/11 03:50:15;;;;;;;;;;;-1.00;99.90;;;;;;5004343;28;20038;-49
2021/12/11 03:52:42;;;;;;;22.65;11.48;;;-1.00;99.90;;;;;;4993218;28;20000;-53
2021/12/11 03:55:12;;;;;;;19.52;12.10;;;-1.00;99.90;;;;;;5003643;28;20042;-51
2021/12/11 03:57:38;;;;;;;22.48;11.13;;;-1.00;99.90;;;;;;4995186;28;20048;-50
2021/12/11 04:00:09;;;;;;;23.77;12.35;;;-1.00;99.90;;;;;;5012546;28;20136;-51
2021/12/11 04:02:36;;;;;;;22.73;12.45;;;-1.10;99.90;;;;;;5012702;28;20042;-52
2021/12/11 04:05:06;;;;;;;23.95;13.15;;;-1.10;99.90;;;;;;4978801;28;20124;-53
2021/12/11 04:07:37;;;;;;;20.55;11.43;;;-1.10;99.90;;;;;;5012870;28;20052;-51
2021/12/11 04:10:05;;;;;;;20.65;11.25;;;-1.10;99.90;;;;;;5000336;28;20042;-50
2021/12/11 04:12:31;;;;;;;22.83;11.90;;;-1.20;99.90;;;;;;5010510;28;20556;-51
2021/12/11 04:14:57;;;;;;;25.20;12.25;;;-1.20;99.90;;;;;;5010669;28;20037;-48
2021/12/11 04:17:25;;;;;;;28.02;13.63;;;-1.20;99.90;;;;;;4994429;28;20149;-51
2021/12/11 04:19:55;;;;;;;28.20;13.63;;;-1.30;99.90;;;;;;4974668;28;20101;-50
2021/12/11 04:22:24;;;;;;;23.75;12.60;;;-1.20;99.90;;;;;;4983392;28;20102;-50
2021/12/11 04:24:50;;;;;;;25.35;13.25;;;-1.20;99.90;;;;;;4978452;28;20315;-51
2021/12/11 04:27:18;;;;;;;26.25;12.63;;;-1.20;99.90;;;;;;4972340;28;20509;-47
2021/12/11 04:29:49;;;;;;;25.50;13.20;;;-1.20;99.90;;;;;;4992866;28;20074;-48
2021/12/11 04:32:16;;;;;;;28.23;13.73;;;-1.20;99.90;;;;;;4992689;28;20089;-50
2021/12/11 04:35:30;;;;;;;24.60;13.55;;;-1.20;99.90;;;;;;4981630;28;20519;-54
2021/12/11 04:37:59;;;;;;;29.05;15.10;;;-1.40;99.90;;;;;;5011835;28;20034;-52
2021/12/11 04:40:30;;;;;;;23.63;12.88;;;-1.20;99.90;;;;;;5012107;28;20042;-53
2021/12/11 04:43:07;;;;;;;22.10;12.03;;;-1.20;99.90;;;;;;5011289;28;20125;-53
2021/12/11 04:45:45;;;;;;;19.27;11.43;;;-1.20;99.90;;;;;;5011175;28;20301;-53
2021/12/11 04:48:30;;;;;;;22.90;11.80;;;-1.30;99.90;;;;;;5011889;28;20379;-52
2021/12/11 05:10:48;;;;;;;26.45;13.60;;;-1.30;99.90;;;;;;4987310;28;20568;-50
2021/12/11 05:13:14;;;;;;;26.50;13.80;;;-1.20;99.90;;;;;;4991956;28;20066;-52
2021/12/11 05:15:43;;;;;;;23.38;12.85;;;-1.20;99.90;;;;;;5003605;28;20037;-51
2021/12/11 05:18:12;;;;;;;27.70;13.38;;;-1.20;99.90;;;;;;5011643;28;20543;-49
2021/12/11 05:20:40;;;;;;;22.48;12.30;;;-1.20;99.90;;;;;;5011652;28;20041;-49
2021/12/11 05:23:06;;;;;;;24.15;12.07;;;-1.30;99.90;;;;;;4994140;28;20046;-49
2021/12/11 05:25:32;;;;;;;22.75;12.32;;;-1.30;99.90;;;;;;4985886;28;20056;-52
2021/12/11 05:27:57;;;;;;;27.25;12.20;;;-1.30;99.90;;;;;;5011751;28;20034;-49
2021/12/11 05:30:31;;;;;;;25.25;12.57;;;-1.30;99.90;;;;;;5013442;28;20543;-49
2021/12/11 05:32:58;;;;;;;25.27;12.35;;;-1.30;99.90;;;;;;5003411;28;20034;-49
2021/12/11 05:35:28;;;;;;;24.73;12.90;;;-1.30;99.90;;;;;;5006700;28;20038;-49
2021/12/11 05:37:54;;;;;;;25.65;12.93;;;-1.30;99.90;;;;;;5014931;28;20073;-51
2021/12/11 05:40:23;;;;;;;26.92;14.13;;;-1.30;99.90;;;;;;4998008;28;20038;-52
2021/12/11 05:42:49;;;;;;;24.48;13.77;;;-1.30;99.90;;;;;;5015176;28;20490;-49
2021/12/11 05:45:16;;;;;;;27.00;13.35;;;-1.30;99.90;;;;;;5006272;28;20069;-49
2021/12/11 05:47:42;;;;;;;24.98;13.15;;;-1.40;99.90;;;;;;5007896;28;20114;-49
2021/12/11 05:50:13;;;;;;;25.55;14.65;;;-1.40;99.90;;;;;;4997884;28;20041;-52
2021/12/11 05:52:38;;;;;;;31.23;15.65;;;-1.30;99.90;;;;;;5014843;28;20041;-49
2021/12/11 05:55:08;;;;;;;33.03;16.63;;;-1.30;99.90;;;;;;5013838;28;20034;-53
2021/12/11 05:57:37;;;;;;;30.60;15.90;;;-1.30;99.90;;;;;;5016207;28;20053;-49
2021/12/11 06:00:10;;;;;;;30.73;16.05;;;-1.10;99.90;;;;;;5015255;28;20050;-53
2021/12/11 06:02:36;;;;;;;32.60;16.42;;;-1.30;99.90;;;;;;5015436;28;20069;-49
2021/12/11 06:05:03;;;;;;;28.40;15.70;;;-1.20;99.90;;;;;;5014159;28;20077;-49
2021/12/11 06:07:30;;;;;;;32.05;15.90;;;-1.20;99.90;;;;;;5015344;28;20426;-50
2021/12/11 06:10:00;;;;;;;28.58;15.20;;;-1.20;99.90;;;;;;5014801;28;20073;-48
2021/12/11 06:12:27;;;;;;;31.25;15.93;;;-1.20;99.90;;;;;;5014961;28;20061;-48
2021/12/11 06:14:54;;;;;;;30.50;16.55;;;-1.20;99.90;;;;;;5004824;28;20096;-49
2021/12/11 06:17:29;;;;;;;32.33;16.38;;;-1.10;99.90;;;;;;4981383;28;20103;-52
2021/12/11 06:19:57;;;;;;;30.30;16.38;;;-1.10;99.90;;;;;;5010525;28;20091;-52
2021/12/11 06:22:27;;;;;;;30.00;16.45;;;-1.00;99.90;;;;;;5030724;28;20045;-50
2021/12/11 06:24:55;;;;;;;29.20;15.02;;;-1.00;99.90;;;;;;5013888;28;20045;-49
2021/12/11 06:27:22;;;;;;;30.20;15.02;;;-1.00;99.90;;;;;;5008481;28;20548;-53
2021/12/11 06:29:48;;;;;;;27.60;14.38;;;-0.90;99.90;;;;;;5014458;28;20042;-52
2021/12/11 06:32:14;;;;;;;28.45;14.45;;;-0.90;99.90;;;;;;5013470;28;20044;-51
2021/12/11 06:34:40;;;;;;;30.30;17.13;;;-0.90;99.90;;;;;;5013896;28;20389;-52
2021/12/11 06:37:08;;;;;;;38.08;17.35;;;-0.90;99.90;;;;;;5014501;28;20042;-54
2021/12/11 06:39:34;;;;;;;25.88;15.23;;;-0.90;99.90;;;;;;5014385;28;20038;-54
2021/12/11 06:42:03;;;;;;;37.53;18.30;;;-1.00;99.90;;;;;;5009772;28;20045;-54
2021/12/11 06:44:29;;;;;;;29.10;15.38;;;-1.00;99.90;;;;;;4986193;28;20470;-49
2021/12/11 06:46:58;;;;;;;30.85;16.20;;;-0.90;99.90;;;;;;4989044;28;20145;-50
2021/12/11 06:49:24;;;;;;;29.65;15.13;;;-0.90;99.90;;;;;;5014320;28;20038;-49
2021/12/11 06:51:50;;;;;;;30.85;15.88;;;-0.90;99.90;;;;;;5014492;28;20077;-52
2021/12/11 06:54:16;;;;;;;32.70;15.82;;;-1.00;99.90;;;;;;5012805;28;20040;-53
2021/12/11 06:56:42;;;;;;;33.85;16.85;;;-1.00;99.90;;;;;;5014135;28;20111;-52
2021/12/11 06:59:10;;;;;;;31.20;16.25;;;-1.00;99.90;;;;;;5013842;28;20034;-52
2021/12/11 07:01:36;;;;;;;32.30;16.02;;;-1.00;99.90;;;;;;5014087;28;20390;-49
2021/12/11 07:04:06;;;;;;;27.75;14.77;;;-1.00;99.90;;;;;;5013154;28;20043;-49
2021/12/11 07:06:33;;;;;;;29.23;15.80;;;-1.10;99.90;;;;;;5014039;28;20053;-54
2021/12/11 07:09:00;;;;;;;35.95;17.63;;;-1.10;99.90;;;;;;5006664;28;20044;-50
2021/12/11 07:11:27;;;;;;;30.95;15.55;;;-1.10;99.90;;;;;;5013647;28;20096;-51
2021/12/11 07:13:53;;;;;;;31.40;16.23;;;-1.20;99.90;;;;;;4979285;28;20030;-50
2021/12/11 07:16:19;;;;;;;25.05;14.70;;;-1.20;99.90;;;;;;5013757;28;20037;-51
2021/12/11 07:18:45;;;;;;;27.55;14.18;;;-1.20;99.90;;;;;;4963658;28;20046;-49
2021/12/11 07:21:11;;;;;;;27.08;14.85;;;-1.20;99.90;;;;;;5013424;28;20129;-52
2021/12/11 07:23:41;;;;;;;26.50;15.15;;;-1.20;99.90;;;;;;5013256;28;20041;-52
2021/12/11 07:26:17;;;;;;;30.30;16.23;;;-1.20;99.90;;;;;;5006746;28;20044;-50
2021/12/11 07:28:54;;;;;;;26.90;15.45;;;-1.20;99.90;;;;;;5000398;28;20045;-49
2021/12/11 07:31:22;;;;;;;27.92;15.43;;;-1.20;99.90;;;;;;5006339;28;20041;-49
2021/12/11 07:33:49;;;;;;;33.28;16.83;;;-1.20;99.90;;;;;;4989725;28;20537;-49
2021/12/11 07:36:15;;;;;;;31.50;16.70;;;-1.20;99.90;;;;;;5006124;28;20525;-49
2021/12/11 07:38:41;;;;;;;33.10;18.52;;;-1.20;99.90;;;;;;5012996;28;20100;-48
2021/12/11 07:41:09;;;;;;;35.70;19.05;;;-1.20;99.90;;;;;;4979700;28;20049;-49
2021/12/11 07:43:37;;;;;;;31.73;16.08;;;-1.20;99.90;;;;;;5012463;28;20042;-49
2021/12/11 07:46:04;;;;;;;34.67;16.50;;;-1.20;99.90;;;;;;5013191;28;20053;-49
2021/12/11 07:48:30;;;;;;;27.70;16.08;;;-1.20;99.90;;;;;;5011795;28;20050;-51
2021/12/11 07:50:55;;;;;;;34.45;17.42;;;-1.20;99.90;;;;;;5012378;28;20095;-49
2021/12/11 07:53:22;;;;;;;31.70;17.20;;;-1.20;99.90;;;;;;4977164;28;20071;-52
2021/12/11 07:55:49;;;;;;;32.95;16.98;;;-1.30;99.90;;;;;;5006249;28;20061;-51
2021/12/11 07:58:15;;;;;;;29.25;15.68;;;-1.30;99.90;;;;;;4993334;28;20494;-48
2021/12/11 08:00:43;;;;;;;30.63;15.75;;;-1.30;99.90;;;;;;5009242;28;20050;-49
2021/12/11 08:03:10;;;;;;;33.10;16.00;;;-1.30;99.90;;;;;;5013083;28;20041;-49
2021/12/11 08:05:38;;;;;;;28.13;15.50;;;-1.30;99.90;;;;;;5011693;28;20405;-49
2021/12/11 08:08:06;;;;;;;30.90;15.70;;;-1.30;99.90;;;;;;5008337;28;20042;-50
2021/12/11 08:10:33;;;;;;;30.45;15.43;;;-1.40;99.90;;;;;;5000381;28;20088;-49
2021/12/11 08:13:00;;;;;;;32.72;16.50;;;-1.40;99.90;;;;;;5011653;28;20507;-49
2021/12/11 08:15:26;;;;;;;28.30;15.30;;;-1.40;99.90;;;;;;5026200;23;20294;-52
2021/12/11 08:17:54;;;;;;;40.13;17.35;;;-1.50;99.90;;;;;;5015150;28;20084;-53
2021/12/11 08:20:22;;;;;;;25.55;15.25;;;-1.40;99.90;;;;;;4994637;28;20054;-52
2021/12/11 08:22:50;;;;;;;31.52;16.77;;;-1.50;99.90;;;;;;5011807;28;20153;-54
2021/12/11 08:25:16;;;;;;;29.67;15.70;;;-1.40;99.90;;;;;;5010312;28;20581;-50
2021/12/11 08:27:41;;;;;;;28.80;15.52;;;-1.40;99.90;;;;;;5011943;28;20129;-52
2021/12/11 08:30:08;;;;;;;26.50;15.40;;;-1.40;99.90;;;;;;5012107;28;20037;-52
2021/12/11 08:32:34;;;;;;;31.00;16.38;;;-1.40;99.90;;;;;;4983811;28;20052;-49
2021/12/11 08:35:00;;;;;;;34.13;17.92;;;-1.40;99.90;;;;;;5017236;28;20033;-50
2021/12/11 08:37:26;;;;;;;35.95;18.10;;;-1.40;99.90;;;;;;5000783;28;20077;-49
2021/12/11 08:39:53;;;;;;;31.13;17.75;;;-1.40;99.90;;;;;;4992163;28;20100;-49
2021/12/11 08:42:24;;;;;;;34.95;18.23;;;-1.30;99.90;;;;;;4994729;28;20034;-51
2021/12/11 08:45:03;;;;;;;37.93;19.20;;;-1.30;99.90;;;;;;4994451;28;20042;-49
2021/12/11 08:47:29;;;;;;;42.80;20.27;;;-1.20;99.90;;;;;;4991963;28;20347;-50
2021/12/11 08:49:55;;;;;;;40.55;21.58;;;-1.20;99.90;;;;;;4995693;28;20045;-53
2021/12/11 08:52:28;;;;;;;42.20;21.60;;;-1.10;99.90;;;;;;4995584;28;20045;-53
2021/12/11 08:54:55;;;;;;;41.38;20.48;;;-1.00;99.90;;;;;;4998215;28;20075;-49
2021/12/11 08:57:25;;;;;;;42.40;21.30;;;-0.90;99.90;;;;;;4992915;28;20042;-53
2021/12/11 08:59:55;;;;;;;38.40;21.15;;;-0.70;99.90;;;;;;4998576;28;20073;-50
2021/12/11 09:02:26;;;;;;;43.42;21.55;;;-0.70;99.90;;;;;;4991956;28;20318;-50
2021/12/11 09:04:59;;;;;;;41.90;22.85;;;-0.70;99.90;;;;;;4993265;28;20089;-50
2021/12/11 09:07:42;;;;;;;37.90;21.23;;;-0.60;99.90;;;;;;4996530;28;20045;-49
2021/12/11 09:10:17;;;;;;;;;;;-0.50;99.90;;;;;;4995537;28;20042;-50
2021/12/11 09:12:56;;;;;;;44.60;23.65;;;-0.50;99.90;;;;;;4990651;28;20451;-49
2021/12/11 09:15:48;;;;;;;43.03;24.60;;;-0.40;99.90;;;;;;4992868;28;20096;-49
2021/12/11 09:18:18;;;;;;;49.65;24.98;;;-0.30;99.90;;;;;;4993828;28;20077;-49
2021/12/11 09:20:55;;;;;;;42.20;23.40;;;-0.30;99.90;;;;;;4990542;28;20463;-49
2021/12/11 09:23:42;;;;;;;43.13;24.02;;;-0.20;99.90;;;;;;4990446;28;20046;-48
2021/12/11 09:26:16;;;;;;;44.03;23.50;;;-0.20;99.90;;;;;;4993879;28;20053;-48
2021/12/11 09:28:55;;;;;;;44.58;23.40;;;-0.10;99.90;;;;;;4993528;28;20043;-50
2021/12/11 09:31:37;;;;;;;40.17;22.42;;;-0.10;99.90;;;;;;4991364;28;20038;-52
2021/12/11 09:34:17;;;;;;;42.55;23.80;;;-0.10;99.90;;;;;;4990713;28;20048;-49
2021/12/11 09:36:49;;;;;;;46.50;24.48;;;0.00;99.90;;;;;;4995295;28;20034;-50
2021/12/11 09:39:26;;;;;;;39.28;22.88;;;0.00;99.90;;;;;;4975342;28;20394;-48
2021/12/11 09:41:51;;;;;;;46.45;23.92;;;0.10;99.90;;;;;;4993230;28;20038;-49
2021/12/11 09:44:48;;;;;;;39.40;23.35;;;0.10;99.90;;;;;;4991143;28;20053;-50
2021/12/11 09:47:51;;;;;;;44.25;24.77;;;0.20;99.90;;;;;;4983507;28;20057;-49
2021/12/11 09:50:30;;;;;;;44.13;23.97;;;0.20;99.90;;;;;;4994227;28;20084;-49
2021/12/11 09:52:56;;;;;;;43.50;23.98;;;0.30;99.90;;;;;;4997333;28;20646;-49
2021/12/11 09:55:27;;;;;;;48.28;23.42;;;0.30;99.90;;;;;;4996823;28;20501;-49
2021/12/11 09:57:57;;;;;;;44.67;24.05;;;0.40;99.90;;;;;;4999784;28;20351;-49
2021/12/11 10:00:46;;;;;;;42.80;23.13;;;0.40;99.90;;;;;;5010868;28;20425;-49
2021/12/11 10:03:16;;;;;;;43.03;23.85;;;0.50;99.90;;;;;;5008382;28;20050;-49
2021/12/11 10:05:49;;;;;;;48.45;24.92;;;0.50;99.90;;;;;;4998680;28;20042;-49
2021/12/11 10:08:36;;;;;;;42.92;24.15;;;0.60;99.90;;;;;;5002505;28;20049;-52
2021/12/11 10:11:27;;;;;;;48.47;25.30;;;0.60;99.90;;;;;;4995686;28;20042;-53
2021/12/11 10:14:04;;;;;;;51.40;26.27;;;0.60;99.90;;;;;;5001662;28;20385;-54
2021/12/11 10:16:34;;;;;;;43.13;24.38;;;0.70;99.90;;;;;;5011096;28;20101;-48
2021/12/11 10:18:59;;;;;;;46.85;26.65;;;0.70;99.90;;;;;;5009137;28;20103;-51
2021/12/11 10:21:35;;;;;;;45.35;24.90;;;0.80;99.90;;;;;;5003606;28;20481;-53
2021/12/11 10:24:04;;;;;;;49.08;26.23;;;0.80;99.90;;;;;;4999423;28;20034;-50
2021/12/11 10:26:32;;;;;;;47.08;26.60;;;0.90;99.90;;;;;;5001915;28;20049;-55
2021/12/11 10:28:59;;;;;;;46.05;25.52;;;0.90;99.90;;;;;;5004029;28;20046;-53
2021/12/11 10:31:36;;;;;;;45.30;25.02;;;0.90;99.90;;;;;;5008280;28;20121;-51
2021/12/11 10:34:06;;;;;;;44.63;25.45;;;1.00;99.90;;;;;;5004837;28;20042;-54
2021/12/11 10:36:35;;;;;;;46.72;25.90;;;1.00;99.90;;;;;;5014203;28;20041;-54
2021/12/11 10:39:04;;;;;;;48.42;26.38;;;1.10;99.90;;;;;;5011900;28;20077;-49
2021/12/11 10:41:31;;;;;;;44.90;26.20;;;1.10;99.90;;;;;;5014401;28;20144;-53
2021/12/11 10:44:19;;;;;;;44.33;24.73;;;1.20;99.90;;;;;;5011093;28;20057;-53
2021/12/11 10:46:53;;;;;;;46.15;25.17;;;1.20;99.90;;;;;;5004580;28;20057;-49
2021/12/11 10:49:20;;;;;;;44.75;25.52;;;1.30;99.90;;;;;;5011918;28;20046;-54
2021/12/11 10:52:05;;;;;;;43.33;26.35;;;1.30;99.90;;;;;;5011802;28;20056;-54
2021/12/11 10:54:32;;;;;;;46.33;26.65;;;1.40;99.90;;;;;;4999789;28;20034;-49
2021/12/11 10:56:58;;;;;;;45.53;27.13;;;1.40;99.90;;;;;;5011906;28;20120;-51
2021/12/11 10:59:27;;;;;;;48.10;26.98;;;1.50;99.90;;;;;;5009152;28;20042;-49
2021/12/11 11:02:16;;;;;;;46.17;25.80;;;1.50;99.90;;;;;;5005193;28;20041;-54
2021/12/11 11:04:52;;;;;;;48.42;26.75;;;1.60;99.90;;;;;;4999873;28;20412;-53
2021/12/11 11:07:19;;;;;;;52.25;27.30;;;1.60;99.90;;;;;;4997993;28;20042;-49
2021/12/11 11:09:44;;;;;;;52.03;27.23;;;1.70;99.90;;;;;;5006062;28;20804;-52
2021/12/11 11:12:14;;;;;;;48.50;27.25;;;1.80;99.90;;;;;;5009600;28;20038;-53
2021/12/11 11:14:41;;;;;;;53.17;27.55;;;1.80;99.90;;;;;;5007097;28;20505;-52
2021/12/11 11:17:11;;;;;;;50.25;27.98;;;1.90;99.90;;;;;;5003881;28;20046;-51
2021/12/11 11:19:40;;;;;;;51.45;27.83;;;1.90;99.90;;;;;;5004888;28;20045;-49
2021/12/11 11:22:09;;;;;;;49.83;28.23;;;1.90;99.90;;;;;;4965454;28;20486;-52
2021/12/11 11:24:39;;;;;;;51.00;27.48;;;2.00;99.90;;;;;;5005671;28;20035;-52
2021/12/11 11:27:07;;;;;;;51.20;27.67;;;2.10;99.90;;;;;;5009163;28;20498;-52
2021/12/11 11:29:34;;;;;;;48.33;28.38;;;2.10;99.90;;;;;;5010107;28;20037;-49
2021/12/11 11:32:05;;;;;;;55.83;27.83;;;2.20;99.90;;;;;;5011536;28;20418;-53
2021/12/11 11:34:31;;;;;;;52.17;27.58;;;2.30;99.90;;;;;;4997695;28;20038;-53
2021/12/11 11:37:02;;;;;;;51.05;27.50;;;2.40;99.90;;;;;;5005285;28;20038;-54
2021/12/11 11:39:29;;;;;;;49.90;27.35;;;2.40;99.90;;;;;;4990668;28;20040;-51
2021/12/11 11:42:04;;;;;;;50.67;27.48;;;2.50;99.90;;;;;;4997515;28;20041;-50
2021/12/11 11:44:30;;;;;;;51.35;27.13;;;2.60;99.90;;;;;;5005236;28;20493;-53
2021/12/11 11:47:00;;;;;;;51.40;27.05;;;2.70;99.90;;;;;;5008666;28;20045;-49
2021/12/11 11:49:27;;;;;;;50.85;27.27;;;2.70;99.90;;;;;;5010268;28;20632;-49
2021/12/11 11:52:00;;;;;;;52.05;27.35;;;2.80;99.90;;;;;;4987603;28;20113;-53
2021/12/11 11:54:28;;;;;;;49.15;27.70;;;2.80;99.90;;;;;;5002490;28;20053;-53
2021/12/11 11:57:09;;;;;;;54.35;26.73;;;2.90;99.90;;;;;;5011604;28;20041;-51
2021/12/11 11:59:35;;;;;;;53.80;27.15;;;2.90;99.90;;;;;;4982370;28;20074;-54
2021/12/11 12:02:08;;;;;;;53.53;27.88;;;3.00;99.90;;;;;;4995200;28;20042;-53
2021/12/11 12:04:35;;;;;;;51.72;26.75;;;3.00;99.90;;;;;;5001348;28;20081;-51
2021/12/11 12:07:03;;;;;;;53.63;27.48;;;3.00;99.90;;;;;;5008055;28;20042;-53
2021/12/11 12:09:32;;;;;;;56.10;27.23;;;3.10;99.90;;;;;;5002060;28;20044;-52
2021/12/11 12:11:59;;;;;;;55.88;26.77;;;3.10;99.90;;;;;;4997508;28;20441;-51
2021/12/11 12:14:27;;;;;;;54.13;27.65;;;3.10;99.90;;;;;;4997038;28;20038;-48
2021/12/11 12:16:53;;;;;;;52.55;27.13;;;3.20;99.90;;;;;;4996553;28;20057;-52
2021/12/11 12:19:21;;;;;;;52.88;25.98;;;3.20;99.90;;;;;;4996853;28;20498;-50
2021/12/11 12:21:51;;;;;;;53.67;27.10;;;3.20;99.90;;;;;;5007056;28;20109;-51
2021/12/11 12:24:22;;;;;;;56.85;26.77;;;3.30;99.90;;;;;;5004815;28;20109;-49
2021/12/11 12:26:50;;;;;;;52.63;27.77;;;3.30;99.90;;;;;;4998781;28;20457;-51
2021/12/11 12:29:18;;;;;;;56.38;27.67;;;3.30;99.90;;;;;;4993146;28;20089;-51
2021/12/11 12:31:51;;;;;;;55.15;28.30;;;3.30;99.90;;;;;;4995529;28;20540;-50
2021/12/11 12:34:19;;;;;;;49.10;26.35;;;3.40;99.90;;;;;;4996547;28;20057;-52
2021/12/11 12:36:46;;;;;;;54.35;26.17;;;3.40;99.90;;;;;;4995206;28;20038;-51
2021/12/11 12:39:14;;;;;;;51.80;26.63;;;3.50;99.90;;;;;;4995754;28;20034;-52
2021/12/11 12:41:46;;;;;;;52.90;26.98;;;3.60;99.90;;;;;;5000462;28;20073;-52
2021/12/11 12:44:18;;;;;;;59.60;27.08;;;3.60;99.90;;;;;;4995305;28;20034;-50
2021/12/11 12:47:07;;;;;;;56.28;27.10;;;3.60;99.90;;;;;;5005819;28;20034;-52
2021/12/11 12:49:34;;;;;;;47.38;25.33;;;3.70;99.90;;;;;;5010854;28;20572;-51
2021/12/11 12:52:06;;;;;;;49.90;26.88;;;3.70;99.90;;;;;;5001779;28;20041;-48
2021/12/11 12:54:32;;;;;;;58.05;27.52;;;3.70;99.90;;;;;;5007585;28;20044;-51
2021/12/11 12:57:15;;;;;;;56.35;27.48;;;3.80;99.90;;;;;;5007376;28;20081;-48
2021/12/11 13:00:05;;;;;;;51.85;27.13;;;3.80;99.90;;;;;;4998301;28;20057;-49
2021/12/11 13:02:32;;;;;;;53.28;26.85;;;3.80;99.90;;;;;;4996712;28;20121;-48
2021/12/11 13:05:05;;;;;;;51.50;25.58;;;3.80;99.90;;;;;;4996778;28;20030;-51
2021/12/11 13:07:31;;;;;;;53.33;26.52;;;3.80;99.90;;;;;;4996865;28;20122;-52
2021/12/11 13:10:04;;;;;;;50.15;25.65;;;3.90;99.90;;;;;;4997659;28;20129;-50
2021/12/11 13:12:34;;;;;;;54.88;26.45;;;3.90;99.90;;;;;;4996332;28;20053;-49
2021/12/11 13:15:12;;;;;;;53.33;25.23;;;3.90;99.90;;;;;;4997646;28;20069;-51
2021/12/11 13:17:43;;;;;;;44.83;25.48;;;3.90;99.90;;;;;;4996378;28;20517;-51
2021/12/11 13:20:36;;;;;;;50.60;27.65;;;3.90;99.90;;;;;;4997536;28;20509;-48
2021/12/11 13:23:04;;;;;;;;;;;3.80;99.90;;;;;;4995834;28;20070;-48
2021/12/11 13:25:44;;;;;;;50.17;25.55;;;3.80;99.90;;;;;;4997633;28;19949;-52